sensor_id;sensor_type;location;lat;lon;timestamp;P1;durP1;ratioP1;P2;durP2;ratioP2
66380;SDS011;53177;52.648;1.214;2023-07-20T00:01:34;7.80;;;3.50;;
66380;SDS011;53177;52.648;1.214;2023-07-20T00:04:00;7.93;;;3.93;;
66380;SDS011;53177;52.648;1.214;2023-07-20T00:06:25;7.13;;;3.50;;
66380;SDS011;53177;52.648;1.214;2023-07-20T00:08:52;8.00;;;4.35;;
66380;SDS011;53177;52.648;1.214;2023-07-20T00:11:19;7.85;;;4.25;;
66380;SDS011;53177;52.648;1.214;2023-07-20T00:13:44;7.30;;;3.95;;
66380;SDS011;53177;52.648;1.214;2023-07-20T00:16:10;7.43;;;3.70;;
66380;SDS011;53177;52.648;1.214;2023-07-20T00:18:35;8.03;;;4.07;;
66380;SDS011;53177;52.648;1.214;2023-07-20T00:21:01;7.70;;;3.85;;
66380;SDS011;53177;52.648;1.214;2023-07-20T00:23:26;7.53;;;3.80;;
66380;SDS011;53177;52.648;1.214;2023-07-20T00:25:52;7.63;;;3.60;;
66380;SDS011;53177;52.648;1.214;2023-07-20T00:28:18;7.90;;;3.90;;
66380;SDS011;53177;52.648;1.214;2023-07-20T00:30:43;7.27;;;3.60;;
66380;SDS011;53177;52.648;1.214;2023-07-20T00:33:10;7.23;;;3.90;;
66380;SDS011;53177;52.648;1.214;2023-07-20T00:35:36;8.57;;;4.05;;
66380;SDS011;53177;52.648;1.214;2023-07-20T00:38:02;7.78;;;4.10;;
66380;SDS011;53177;52.648;1.214;2023-07-20T00:40:28;7.03;;;4.10;;
66380;SDS011;53177;52.648;1.214;2023-07-20T00:42:53;8.45;;;4.25;;
66380;SDS011;53177;52.648;1.214;2023-07-20T00:45:19;10.37;;;4.87;;
66380;SDS011;53177;52.648;1.214;2023-07-20T00:47:45;8.93;;;4.67;;
66380;SDS011;53177;52.648;1.214;2023-07-20T00:50:11;8.25;;;4.10;;
66380;SDS011;53177;52.648;1.214;2023-07-20T00:52:37;9.13;;;4.28;;
66380;SDS011;53177;52.648;1.214;2023-07-20T00:55:07;9.25;;;4.57;;
66380;SDS011;53177;52.648;1.214;2023-07-20T00:57:33;8.45;;;4.85;;
66380;SDS011;53177;52.648;1.214;2023-07-20T00:59:59;9.17;;;5.00;;
66380;SDS011;53177;52.648;1.214;2023-07-20T01:02:24;9.63;;;5.00;;
66380;SDS011;53177;52.648;1.214;2023-07-20T01:04:50;7.93;;;4.47;;
66380;SDS011;53177;52.648;1.214;2023-07-20T01:07:31;8.20;;;4.72;;
66380;SDS011;53177;52.648;1.214;2023-07-20T01:12:41;9.07;;;4.38;;
66380;SDS011;53177;52.648;1.214;2023-07-20T01:15:08;9.27;;;4.93;;
66380;SDS011;53177;52.648;1.214;2023-07-20T01:17:34;9.20;;;5.00;;
66380;SDS011;53177;52.648;1.214;2023-07-20T01:20:00;8.88;;;5.13;;
66380;SDS011;53177;52.648;1.214;2023-07-20T01:30:35;10.32;;;5.90;;
66380;SDS011;53177;52.648;1.214;2023-07-20T01:33:13;12.88;;;6.43;;
66380;SDS011;53177;52.648;1.214;2023-07-20T01:35:41;14.80;;;7.38;;
66380;SDS011;53177;52.648;1.214;2023-07-20T01:38:09;17.75;;;8.05;;
66380;SDS011;53177;52.648;1.214;2023-07-20T01:40:35;16.80;;;8.30;;
66380;SDS011;53177;52.648;1.214;2023-07-20T01:43:01;15.50;;;7.28;;
66380;SDS011;53177;52.648;1.214;2023-07-20T01:45:27;14.55;;;7.35;;
66380;SDS011;53177;52.648;1.214;2023-07-20T01:47:53;15.40;;;7.40;;
66380;SDS011;53177;52.648;1.214;2023-07-20T01:50:18;18.27;;;7.50;;
66380;SDS011;53177;52.648;1.214;2023-07-20T01:52:45;16.48;;;7.60;;
66380;SDS011;53177;52.648;1.214;2023-07-20T01:55:10;16.20;;;8.20;;
66380;SDS011;53177;52.648;1.214;2023-07-20T01:57:36;14.37;;;7.40;;
66380;SDS011;53177;52.648;1.214;2023-07-20T02:00:01;14.80;;;6.90;;
66380;SDS011;53177;52.648;1.214;2023-07-20T02:02:27;16.27;;;7.35;;
66380;SDS011;53177;52.648;1.214;2023-07-20T02:04:53;13.50;;;6.63;;
66380;SDS011;53177;52.648;1.214;2023-07-20T02:07:19;12.30;;;6.57;;
66380;SDS011;53177;52.648;1.214;2023-07-20T02:09:44;13.68;;;6.90;;
66380;SDS011;53177;52.648;1.214;2023-07-20T02:12:10;13.23;;;6.20;;
66380;SDS011;53177;52.648;1.214;2023-07-20T02:14:35;14.53;;;6.60;;
66380;SDS011;53177;52.648;1.214;2023-07-20T02:17:00;12.70;;;6.13;;
66380;SDS011;53177;52.648;1.214;2023-07-20T02:19:26;13.90;;;6.53;;
66380;SDS011;53177;52.648;1.214;2023-07-20T02:21:52;12.20;;;6.63;;
66380;SDS011;53177;52.648;1.214;2023-07-20T02:24:18;12.55;;;6.10;;
66380;SDS011;53177;52.648;1.214;2023-07-20T02:26:43;11.97;;;6.00;;
66380;SDS011;53177;52.648;1.214;2023-07-20T02:29:09;11.50;;;5.90;;
66380;SDS011;53177;52.648;1.214;2023-07-20T02:31:36;12.25;;;6.07;;
66380;SDS011;53177;52.648;1.214;2023-07-20T02:34:02;11.38;;;5.78;;
66380;SDS011;53177;52.648;1.214;2023-07-20T02:36:28;11.40;;;5.83;;
66380;SDS011;53177;52.648;1.214;2023-07-20T02:38:53;12.00;;;6.33;;
66380;SDS011;53177;52.648;1.214;2023-07-20T02:41:19;12.30;;;5.60;;
66380;SDS011;53177;52.648;1.214;2023-07-20T02:43:45;14.75;;;6.38;;
66380;SDS011;53177;52.648;1.214;2023-07-20T02:46:10;9.90;;;5.65;;
66380;SDS011;53177;52.648;1.214;2023-07-20T02:48:35;11.07;;;5.70;;
66380;SDS011;53177;52.648;1.214;2023-07-20T02:51:01;11.50;;;6.07;;
66380;SDS011;53177;52.648;1.214;2023-07-20T02:53:26;12.40;;;6.00;;
66380;SDS011;53177;52.648;1.214;2023-07-20T02:55:52;12.23;;;5.47;;
66380;SDS011;53177;52.648;1.214;2023-07-20T02:58:17;14.18;;;5.78;;
66380;SDS011;53177;52.648;1.214;2023-07-20T03:00:43;10.90;;;5.17;;
66380;SDS011;53177;52.648;1.214;2023-07-20T03:03:09;9.65;;;4.80;;
66380;SDS011;53177;52.648;1.214;2023-07-20T03:05:34;12.83;;;5.07;;
66380;SDS011;53177;52.648;1.214;2023-07-20T03:08:02;9.35;;;5.15;;
66380;SDS011;53177;52.648;1.214;2023-07-20T03:10:28;11.53;;;5.13;;
66380;SDS011;53177;52.648;1.214;2023-07-20T03:12:54;8.80;;;4.55;;
66380;SDS011;53177;52.648;1.214;2023-07-20T03:15:19;9.50;;;4.60;;
66380;SDS011;53177;52.648;1.214;2023-07-20T03:17:45;9.43;;;4.67;;
66380;SDS011;53177;52.648;1.214;2023-07-20T03:20:11;11.27;;;4.87;;
66380;SDS011;53177;52.648;1.214;2023-07-20T03:22:38;10.10;;;5.20;;
66380;SDS011;53177;52.648;1.214;2023-07-20T03:25:10;11.98;;;5.03;;
66380;SDS011;53177;52.648;1.214;2023-07-20T03:27:44;11.38;;;5.25;;
66380;SDS011;53177;52.648;1.214;2023-07-20T03:30:13;11.53;;;5.63;;
66380;SDS011;53177;52.648;1.214;2023-07-20T03:32:45;10.93;;;5.28;;
66380;SDS011;53177;52.648;1.214;2023-07-20T03:35:14;10.52;;;5.10;;
66380;SDS011;53177;52.648;1.214;2023-07-20T03:37:49;9.93;;;4.90;;
66380;SDS011;53177;52.648;1.214;2023-07-20T03:40:20;11.38;;;5.10;;
66380;SDS011;53177;52.648;1.214;2023-07-20T03:42:49;8.97;;;5.07;;
66380;SDS011;53177;52.648;1.214;2023-07-20T03:45:20;10.70;;;5.07;;
66380;SDS011;53177;52.648;1.214;2023-07-20T03:47:49;11.48;;;4.95;;
66380;SDS011;53177;52.648;1.214;2023-07-20T03:50:15;8.90;;;4.87;;
66380;SDS011;53177;52.648;1.214;2023-07-20T03:52:40;10.73;;;5.18;;
66380;SDS011;53177;52.648;1.214;2023-07-20T03:55:06;12.97;;;5.57;;
66380;SDS011;53177;52.648;1.214;2023-07-20T03:57:32;11.82;;;5.28;;
66380;SDS011;53177;52.648;1.214;2023-07-20T03:59:58;9.93;;;5.22;;
66380;SDS011;53177;52.648;1.214;2023-07-20T04:02:24;9.13;;;4.60;;
66380;SDS011;53177;52.648;1.214;2023-07-20T04:04:50;10.70;;;5.07;;
66380;SDS011;53177;52.648;1.214;2023-07-20T04:07:16;9.87;;;5.27;;
66380;SDS011;53177;52.648;1.214;2023-07-20T04:09:41;9.90;;;4.70;;
66380;SDS011;53177;52.648;1.214;2023-07-20T04:12:06;10.30;;;4.83;;
66380;SDS011;53177;52.648;1.214;2023-07-20T04:14:32;12.17;;;5.40;;
66380;SDS011;53177;52.648;1.214;2023-07-20T04:16:58;9.77;;;4.97;;
66380;SDS011;53177;52.648;1.214;2023-07-20T04:19:25;10.60;;;5.45;;
66380;SDS011;53177;52.648;1.214;2023-07-20T04:21:50;10.52;;;5.15;;
66380;SDS011;53177;52.648;1.214;2023-07-20T04:24:16;10.13;;;4.87;;
66380;SDS011;53177;52.648;1.214;2023-07-20T04:26:41;11.37;;;4.93;;
66380;SDS011;53177;52.648;1.214;2023-07-20T04:29:07;9.48;;;4.80;;
66380;SDS011;53177;52.648;1.214;2023-07-20T04:31:33;9.27;;;4.90;;
66380;SDS011;53177;52.648;1.214;2023-07-20T04:33:59;10.40;;;4.95;;
66380;SDS011;53177;52.648;1.214;2023-07-20T04:36:24;9.97;;;4.77;;
66380;SDS011;53177;52.648;1.214;2023-07-20T04:38:49;10.73;;;4.97;;
66380;SDS011;53177;52.648;1.214;2023-07-20T04:41:15;9.90;;;5.10;;
66380;SDS011;53177;52.648;1.214;2023-07-20T04:43:41;9.60;;;4.90;;
66380;SDS011;53177;52.648;1.214;2023-07-20T04:46:08;9.40;;;5.00;;
66380;SDS011;53177;52.648;1.214;2023-07-20T04:48:34;9.80;;;4.70;;
66380;SDS011;53177;52.648;1.214;2023-07-20T04:50:59;10.20;;;5.07;;
66380;SDS011;53177;52.648;1.214;2023-07-20T04:53:25;10.60;;;5.50;;
66380;SDS011;53177;52.648;1.214;2023-07-20T04:55:50;10.93;;;5.60;;
66380;SDS011;53177;52.648;1.214;2023-07-20T04:58:17;9.70;;;4.82;;
66380;SDS011;53177;52.648;1.214;2023-07-20T05:00:43;11.23;;;4.88;;
66380;SDS011;53177;52.648;1.214;2023-07-20T05:03:09;11.77;;;5.40;;
66380;SDS011;53177;52.648;1.214;2023-07-20T05:05:34;11.13;;;5.57;;
66380;SDS011;53177;52.648;1.214;2023-07-20T05:07:59;9.63;;;4.80;;
66380;SDS011;53177;52.648;1.214;2023-07-20T05:10:25;10.87;;;5.10;;
66380;SDS011;53177;52.648;1.214;2023-07-20T05:12:52;10.32;;;5.28;;
66380;SDS011;53177;52.648;1.214;2023-07-20T05:15:17;10.50;;;4.83;;
66380;SDS011;53177;52.648;1.214;2023-07-20T05:17:43;10.30;;;5.00;;
66380;SDS011;53177;52.648;1.214;2023-07-20T05:20:09;8.80;;;4.53;;
66380;SDS011;53177;52.648;1.214;2023-07-20T05:22:38;9.15;;;4.80;;
66380;SDS011;53177;52.648;1.214;2023-07-20T05:25:07;9.00;;;4.20;;
66380;SDS011;53177;52.648;1.214;2023-07-20T05:27:33;11.27;;;5.70;;
66380;SDS011;53177;52.648;1.214;2023-07-20T05:30:00;10.25;;;4.85;;
66380;SDS011;53177;52.648;1.214;2023-07-20T05:32:25;8.98;;;4.50;;
66380;SDS011;53177;52.648;1.214;2023-07-20T05:34:52;9.10;;;4.33;;
66380;SDS011;53177;52.648;1.214;2023-07-20T05:37:17;9.90;;;4.65;;
66380;SDS011;53177;52.648;1.214;2023-07-20T05:39:43;8.93;;;4.50;;
66380;SDS011;53177;52.648;1.214;2023-07-20T05:42:08;10.40;;;4.97;;
66380;SDS011;53177;52.648;1.214;2023-07-20T05:44:34;9.20;;;4.43;;
66380;SDS011;53177;52.648;1.214;2023-07-20T05:46:59;10.82;;;5.53;;
66380;SDS011;53177;52.648;1.214;2023-07-20T05:49:25;9.90;;;5.10;;
66380;SDS011;53177;52.648;1.214;2023-07-20T05:51:50;10.47;;;5.07;;
66380;SDS011;53177;52.648;1.214;2023-07-20T05:54:16;10.90;;;5.90;;
66380;SDS011;53177;52.648;1.214;2023-07-20T05:56:41;11.63;;;6.15;;
66380;SDS011;53177;52.648;1.214;2023-07-20T05:59:07;12.38;;;5.60;;
66380;SDS011;53177;52.648;1.214;2023-07-20T06:01:32;10.90;;;5.83;;
66380;SDS011;53177;52.648;1.214;2023-07-20T06:03:57;14.50;;;6.30;;
66380;SDS011;53177;52.648;1.214;2023-07-20T06:06:23;12.50;;;5.90;;
66380;SDS011;53177;52.648;1.214;2023-07-20T06:08:48;12.48;;;6.15;;
66380;SDS011;53177;52.648;1.214;2023-07-20T06:11:14;12.50;;;6.90;;
66380;SDS011;53177;52.648;1.214;2023-07-20T06:13:39;14.20;;;7.20;;
66380;SDS011;53177;52.648;1.214;2023-07-20T06:16:04;14.70;;;6.77;;
66380;SDS011;53177;52.648;1.214;2023-07-20T06:18:30;14.43;;;6.60;;
66380;SDS011;53177;52.648;1.214;2023-07-20T06:20:56;13.02;;;6.88;;
66380;SDS011;53177;52.648;1.214;2023-07-20T06:23:21;14.20;;;6.30;;
66380;SDS011;53177;52.648;1.214;2023-07-20T06:25:47;13.93;;;6.27;;
66380;SDS011;53177;52.648;1.214;2023-07-20T06:28:12;11.35;;;5.75;;
66380;SDS011;53177;52.648;1.214;2023-07-20T06:30:38;13.50;;;5.83;;
66380;SDS011;53177;52.648;1.214;2023-07-20T06:33:03;14.10;;;6.57;;
66380;SDS011;53177;52.648;1.214;2023-07-20T06:35:29;12.43;;;6.47;;
66380;SDS011;53177;52.648;1.214;2023-07-20T06:37:54;14.07;;;6.20;;
66380;SDS011;53177;52.648;1.214;2023-07-20T06:40:20;11.47;;;5.87;;
66380;SDS011;53177;52.648;1.214;2023-07-20T06:42:47;16.13;;;6.72;;
66380;SDS011;53177;52.648;1.214;2023-07-20T06:45:12;11.23;;;5.67;;
66380;SDS011;53177;52.648;1.214;2023-07-20T06:47:38;16.57;;;7.43;;
66380;SDS011;53177;52.648;1.214;2023-07-20T06:50:07;14.35;;;7.25;;
66380;SDS011;53177;52.648;1.214;2023-07-20T06:52:33;11.80;;;5.72;;
66380;SDS011;53177;52.648;1.214;2023-07-20T06:54:59;16.30;;;7.30;;
66380;SDS011;53177;52.648;1.214;2023-07-20T06:57:25;13.90;;;6.83;;
66380;SDS011;53177;52.648;1.214;2023-07-20T06:59:50;12.38;;;6.38;;
66380;SDS011;53177;52.648;1.214;2023-07-20T07:02:16;12.93;;;6.70;;
66380;SDS011;53177;52.648;1.214;2023-07-20T07:04:41;16.20;;;7.03;;
66380;SDS011;53177;52.648;1.214;2023-07-20T07:07:07;11.60;;;6.03;;
66380;SDS011;53177;52.648;1.214;2023-07-20T07:09:33;13.13;;;6.50;;
66380;SDS011;53177;52.648;1.214;2023-07-20T07:11:59;13.17;;;6.17;;
66380;SDS011;53177;52.648;1.214;2023-07-20T07:14:24;12.15;;;6.10;;
66380;SDS011;53177;52.648;1.214;2023-07-20T07:16:50;10.87;;;5.43;;
66380;SDS011;53177;52.648;1.214;2023-07-20T07:19:15;12.93;;;6.47;;
66380;SDS011;53177;52.648;1.214;2023-07-20T07:21:40;10.57;;;5.67;;
66380;SDS011;53177;52.648;1.214;2023-07-20T07:24:06;10.00;;;5.17;;
66380;SDS011;53177;52.648;1.214;2023-07-20T07:26:32;10.20;;;5.55;;
66380;SDS011;53177;52.648;1.214;2023-07-20T07:28:58;10.20;;;5.60;;
66380;SDS011;53177;52.648;1.214;2023-07-20T07:31:28;9.57;;;4.50;;
66380;SDS011;53177;52.648;1.214;2023-07-20T07:33:55;9.80;;;4.57;;
66380;SDS011;53177;52.648;1.214;2023-07-20T07:36:21;16.03;;;7.20;;
66380;SDS011;53177;52.648;1.214;2023-07-20T07:38:46;12.90;;;5.20;;
66380;SDS011;53177;52.648;1.214;2023-07-20T07:41:11;7.40;;;3.97;;
66380;SDS011;53177;52.648;1.214;2023-07-20T07:43:37;7.75;;;4.00;;
66380;SDS011;53177;52.648;1.214;2023-07-20T07:46:03;8.93;;;4.75;;
66380;SDS011;53177;52.648;1.214;2023-07-20T07:48:29;10.30;;;5.10;;
66380;SDS011;53177;52.648;1.214;2023-07-20T07:50:54;10.27;;;5.27;;
66380;SDS011;53177;52.648;1.214;2023-07-20T07:53:20;8.48;;;4.82;;
66380;SDS011;53177;52.648;1.214;2023-07-20T07:55:47;11.25;;;4.82;;
66380;SDS011;53177;52.648;1.214;2023-07-20T07:58:13;7.25;;;4.00;;
66380;SDS011;53177;52.648;1.214;2023-07-20T08:00:39;6.80;;;3.65;;
66380;SDS011;53177;52.648;1.214;2023-07-20T08:03:05;7.73;;;3.73;;
66380;SDS011;53177;52.648;1.214;2023-07-20T08:05:31;7.82;;;3.17;;
66380;SDS011;53177;52.648;1.214;2023-07-20T08:07:56;7.27;;;2.97;;
66380;SDS011;53177;52.648;1.214;2023-07-20T08:10:22;7.20;;;2.90;;
66380;SDS011;53177;52.648;1.214;2023-07-20T08:12:48;7.53;;;3.00;;
66380;SDS011;53177;52.648;1.214;2023-07-20T08:15:13;5.63;;;2.47;;
66380;SDS011;53177;52.648;1.214;2023-07-20T08:17:40;5.95;;;2.30;;
66380;SDS011;53177;52.648;1.214;2023-07-20T08:20:06;5.22;;;2.47;;
66380;SDS011;53177;52.648;1.214;2023-07-20T08:22:34;4.80;;;2.20;;
66380;SDS011;53177;52.648;1.214;2023-07-20T08:25:00;6.18;;;2.13;;
66380;SDS011;53177;52.648;1.214;2023-07-20T08:27:25;4.87;;;2.43;;
66380;SDS011;53177;52.648;1.214;2023-07-20T08:29:50;5.77;;;2.27;;
66380;SDS011;53177;52.648;1.214;2023-07-20T08:32:16;5.37;;;2.03;;
66380;SDS011;53177;52.648;1.214;2023-07-20T08:34:41;4.80;;;2.00;;
66380;SDS011;53177;52.648;1.214;2023-07-20T08:37:07;5.05;;;1.83;;
66380;SDS011;53177;52.648;1.214;2023-07-20T08:39:34;3.93;;;1.63;;
66380;SDS011;53177;52.648;1.214;2023-07-20T08:42:00;6.35;;;2.05;;
66380;SDS011;53177;52.648;1.214;2023-07-20T08:44:29;4.75;;;1.90;;
66380;SDS011;53177;52.648;1.214;2023-07-20T08:46:57;3.93;;;1.63;;
66380;SDS011;53177;52.648;1.214;2023-07-20T08:49:23;5.32;;;2.05;;
66380;SDS011;53177;52.648;1.214;2023-07-20T08:51:48;4.47;;;2.00;;
66380;SDS011;53177;52.648;1.214;2023-07-20T08:54:14;5.40;;;1.90;;
66380;SDS011;53177;52.648;1.214;2023-07-20T08:56:41;5.13;;;1.95;;
66380;SDS011;53177;52.648;1.214;2023-07-20T08:59:10;5.20;;;1.70;;
66380;SDS011;53177;52.648;1.214;2023-07-20T09:01:38;4.45;;;1.85;;
66380;SDS011;53177;52.648;1.214;2023-07-20T09:04:04;7.23;;;2.53;;
66380;SDS011;53177;52.648;1.214;2023-07-20T09:06:30;6.82;;;2.40;;
66380;SDS011;53177;52.648;1.214;2023-07-20T09:08:55;4.47;;;2.00;;
66380;SDS011;53177;52.648;1.214;2023-07-20T09:11:21;5.10;;;2.00;;
66380;SDS011;53177;52.648;1.214;2023-07-20T09:13:46;5.03;;;1.70;;
66380;SDS011;53177;52.648;1.214;2023-07-20T09:16:15;4.03;;;1.80;;
66380;SDS011;53177;52.648;1.214;2023-07-20T09:18:41;3.92;;;1.85;;
66380;SDS011;53177;52.648;1.214;2023-07-20T09:21:06;6.40;;;2.53;;
66380;SDS011;53177;52.648;1.214;2023-07-20T09:23:36;4.75;;;2.00;;
66380;SDS011;53177;52.648;1.214;2023-07-20T09:26:09;5.50;;;2.22;;
66380;SDS011;53177;52.648;1.214;2023-07-20T09:28:42;9.47;;;3.30;;
66380;SDS011;53177;52.648;1.214;2023-07-20T09:31:16;5.35;;;1.90;;
66380;SDS011;53177;52.648;1.214;2023-07-20T09:33:46;4.20;;;1.60;;
66380;SDS011;53177;52.648;1.214;2023-07-20T09:36:13;4.00;;;1.60;;
66380;SDS011;53177;52.648;1.214;2023-07-20T09:38:42;6.40;;;2.17;;
66380;SDS011;53177;52.648;1.214;2023-07-20T09:41:08;4.72;;;2.00;;
66380;SDS011;53177;52.648;1.214;2023-07-20T09:43:40;4.22;;;1.60;;
66380;SDS011;53177;52.648;1.214;2023-07-20T09:46:06;6.30;;;2.00;;
66380;SDS011;53177;52.648;1.214;2023-07-20T09:48:32;3.60;;;1.70;;
66380;SDS011;53177;52.648;1.214;2023-07-20T09:50:57;6.60;;;1.70;;
66380;SDS011;53177;52.648;1.214;2023-07-20T09:53:24;4.20;;;1.50;;
66380;SDS011;53177;52.648;1.214;2023-07-20T09:55:50;4.50;;;1.67;;
66380;SDS011;53177;52.648;1.214;2023-07-20T09:58:17;4.10;;;1.60;;
66380;SDS011;53177;52.648;1.214;2023-07-20T10:00:43;5.90;;;1.70;;
66380;SDS011;53177;52.648;1.214;2023-07-20T10:03:18;5.20;;;1.80;;
66380;SDS011;53177;52.648;1.214;2023-07-20T10:05:54;5.70;;;1.70;;
66380;SDS011;53177;52.648;1.214;2023-07-20T10:08:26;4.82;;;1.80;;
66380;SDS011;53177;52.648;1.214;2023-07-20T10:10:54;5.03;;;1.88;;
66380;SDS011;53177;52.648;1.214;2023-07-20T10:13:25;3.42;;;1.48;;
66380;SDS011;53177;52.648;1.214;2023-07-20T10:15:59;3.92;;;1.70;;
66380;SDS011;53177;52.648;1.214;2023-07-20T10:21:17;5.50;;;1.92;;
66380;SDS011;53177;52.648;1.214;2023-07-20T10:23:45;4.47;;;1.80;;
66380;SDS011;53177;52.648;1.214;2023-07-20T10:26:11;5.00;;;1.75;;
66380;SDS011;53177;52.648;1.214;2023-07-20T10:28:38;7.78;;;3.08;;
66380;SDS011;53177;52.648;1.214;2023-07-20T10:31:04;6.27;;;2.60;;
66380;SDS011;53177;52.648;1.214;2023-07-20T10:33:32;4.70;;;2.15;;
66380;SDS011;53177;52.648;1.214;2023-07-20T10:36:02;4.35;;;1.70;;
66380;SDS011;53177;52.648;1.214;2023-07-20T10:38:40;5.20;;;1.90;;
66380;SDS011;53177;52.648;1.214;2023-07-20T10:41:34;5.45;;;1.60;;
66380;SDS011;53177;52.648;1.214;2023-07-20T10:44:08;5.63;;;1.65;;
66380;SDS011;53177;52.648;1.214;2023-07-20T10:46:44;5.70;;;1.90;;
66380;SDS011;53177;52.648;1.214;2023-07-20T10:49:13;5.30;;;1.77;;
66380;SDS011;53177;52.648;1.214;2023-07-20T10:51:40;6.30;;;2.10;;
66380;SDS011;53177;52.648;1.214;2023-07-20T10:56:41;4.35;;;2.10;;
66380;SDS011;53177;52.648;1.214;2023-07-20T11:01:49;4.60;;;2.20;;
66380;SDS011;53177;52.648;1.214;2023-07-20T11:04:15;4.93;;;2.00;;
66380;SDS011;53177;52.648;1.214;2023-07-20T11:06:43;5.88;;;1.98;;
66380;SDS011;53177;52.648;1.214;2023-07-20T11:11:47;7.60;;;2.00;;
66380;SDS011;53177;52.648;1.214;2023-07-20T11:14:23;5.03;;;1.98;;
66380;SDS011;53177;52.648;1.214;2023-07-20T11:16:50;4.73;;;2.20;;
66380;SDS011;53177;52.648;1.214;2023-07-20T11:21:44;4.43;;;2.10;;
66380;SDS011;53177;52.648;1.214;2023-07-20T11:24:12;5.93;;;2.30;;
66380;SDS011;53177;52.648;1.214;2023-07-20T11:29:19;5.70;;;2.90;;
66380;SDS011;53177;52.648;1.214;2023-07-20T11:31:46;5.63;;;2.60;;
66380;SDS011;53177;52.648;1.214;2023-07-20T11:34:13;5.60;;;2.60;;
66380;SDS011;53177;52.648;1.214;2023-07-20T11:36:49;5.88;;;2.60;;
66380;SDS011;53177;52.648;1.214;2023-07-20T11:39:16;5.82;;;2.40;;
66380;SDS011;53177;52.648;1.214;2023-07-20T11:41:46;4.57;;;2.10;;
66380;SDS011;53177;52.648;1.214;2023-07-20T11:44:15;6.75;;;2.92;;
66380;SDS011;53177;52.648;1.214;2023-07-20T11:46:42;4.63;;;2.28;;
66380;SDS011;53177;52.648;1.214;2023-07-20T11:49:09;4.95;;;2.25;;
66380;SDS011;53177;52.648;1.214;2023-07-20T11:51:35;5.57;;;2.40;;
66380;SDS011;53177;52.648;1.214;2023-07-20T11:54:01;4.60;;;2.10;;
66380;SDS011;53177;52.648;1.214;2023-07-20T11:56:27;4.60;;;2.00;;
66380;SDS011;53177;52.648;1.214;2023-07-20T11:59:00;3.95;;;1.70;;
66380;SDS011;53177;52.648;1.214;2023-07-20T12:01:27;4.20;;;1.67;;
66380;SDS011;53177;52.648;1.214;2023-07-20T12:04:00;4.90;;;1.98;;
66380;SDS011;53177;52.648;1.214;2023-07-20T12:06:27;4.50;;;1.77;;
66380;SDS011;53177;52.648;1.214;2023-07-20T12:08:57;6.28;;;1.60;;
66380;SDS011;53177;52.648;1.214;2023-07-20T12:11:32;3.78;;;1.50;;
66380;SDS011;53177;52.648;1.214;2023-07-20T12:14:04;3.50;;;1.40;;
66380;SDS011;53177;52.648;1.214;2023-07-20T12:16:32;4.45;;;1.67;;
66380;SDS011;53177;52.648;1.214;2023-07-20T12:21:26;4.70;;;1.50;;
66380;SDS011;53177;52.648;1.214;2023-07-20T12:23:52;4.90;;;1.85;;
66380;SDS011;53177;52.648;1.214;2023-07-20T12:26:17;4.07;;;1.67;;
66380;SDS011;53177;52.648;1.214;2023-07-20T12:28:47;4.93;;;2.10;;
66380;SDS011;53177;52.648;1.214;2023-07-20T12:31:12;5.60;;;1.90;;
66380;SDS011;53177;52.648;1.214;2023-07-20T12:33:38;6.25;;;2.20;;
66380;SDS011;53177;52.648;1.214;2023-07-20T12:36:04;4.27;;;1.77;;
66380;SDS011;53177;52.648;1.214;2023-07-20T12:38:30;4.45;;;1.90;;
66380;SDS011;53177;52.648;1.214;2023-07-20T12:40:58;4.40;;;1.70;;
66380;SDS011;53177;52.648;1.214;2023-07-20T12:43:29;4.30;;;1.70;;
66380;SDS011;53177;52.648;1.214;2023-07-20T12:45:55;5.70;;;2.05;;
66380;SDS011;53177;52.648;1.214;2023-07-20T12:48:21;4.63;;;1.60;;
66380;SDS011;53177;52.648;1.214;2023-07-20T12:50:47;6.00;;;2.35;;
66380;SDS011;53177;52.648;1.214;2023-07-20T12:53:12;5.70;;;2.00;;
66380;SDS011;53177;52.648;1.214;2023-07-20T12:55:38;4.43;;;1.40;;
66380;SDS011;53177;52.648;1.214;2023-07-20T12:58:07;4.10;;;1.65;;
66380;SDS011;53177;52.648;1.214;2023-07-20T13:00:32;3.88;;;1.48;;
66380;SDS011;53177;52.648;1.214;2023-07-20T13:02:58;4.90;;;2.00;;
66380;SDS011;53177;52.648;1.214;2023-07-20T13:05:23;3.57;;;1.37;;
66380;SDS011;53177;52.648;1.214;2023-07-20T13:07:49;4.50;;;1.63;;
66380;SDS011;53177;52.648;1.214;2023-07-20T13:10:15;5.97;;;1.90;;
66380;SDS011;53177;52.648;1.214;2023-07-20T13:12:42;5.90;;;2.10;;
66380;SDS011;53177;52.648;1.214;2023-07-20T13:15:08;6.50;;;2.13;;
66380;SDS011;53177;52.648;1.214;2023-07-20T13:17:35;5.20;;;2.23;;
66380;SDS011;53177;52.648;1.214;2023-07-20T13:20:04;6.10;;;2.70;;
66380;SDS011;53177;52.648;1.214;2023-07-20T13:22:31;7.90;;;2.60;;
66380;SDS011;53177;52.648;1.214;2023-07-20T13:24:56;5.03;;;2.33;;
66380;SDS011;53177;52.648;1.214;2023-07-20T13:27:22;6.53;;;2.90;;
66380;SDS011;53177;52.648;1.214;2023-07-20T13:29:47;5.47;;;2.50;;
66380;SDS011;53177;52.648;1.214;2023-07-20T13:32:13;5.57;;;2.30;;
66380;SDS011;53177;52.648;1.214;2023-07-20T13:34:40;4.90;;;2.30;;
66380;SDS011;53177;52.648;1.214;2023-07-20T13:37:05;5.57;;;2.60;;
66380;SDS011;53177;52.648;1.214;2023-07-20T13:39:31;4.60;;;2.38;;
66380;SDS011;53177;52.648;1.214;2023-07-20T13:41:56;5.30;;;2.43;;
66380;SDS011;53177;52.648;1.214;2023-07-20T13:44:22;4.90;;;2.17;;
66380;SDS011;53177;52.648;1.214;2023-07-20T13:46:47;4.88;;;2.15;;
66380;SDS011;53177;52.648;1.214;2023-07-20T13:49:13;5.90;;;2.10;;
66380;SDS011;53177;52.648;1.214;2023-07-20T13:51:39;5.28;;;2.20;;
66380;SDS011;53177;52.648;1.214;2023-07-20T13:54:05;6.47;;;2.40;;
66380;SDS011;53177;52.648;1.214;2023-07-20T13:56:31;5.15;;;2.20;;
66380;SDS011;53177;52.648;1.214;2023-07-20T13:58:56;4.30;;;2.23;;
66380;SDS011;53177;52.648;1.214;2023-07-20T14:01:22;6.13;;;2.20;;
66380;SDS011;53177;52.648;1.214;2023-07-20T14:03:49;4.20;;;2.03;;
66380;SDS011;53177;52.648;1.214;2023-07-20T14:06:15;5.07;;;2.10;;
66380;SDS011;53177;52.648;1.214;2023-07-20T14:08:41;4.40;;;2.10;;
66380;SDS011;53177;52.648;1.214;2023-07-20T14:11:06;6.97;;;3.00;;
66380;SDS011;53177;52.648;1.214;2023-07-20T14:13:32;5.63;;;2.43;;
66380;SDS011;53177;52.648;1.214;2023-07-20T14:15:58;5.85;;;2.10;;
66380;SDS011;53177;52.648;1.214;2023-07-20T14:18:23;4.87;;;2.03;;
66380;SDS011;53177;52.648;1.214;2023-07-20T14:20:49;4.63;;;1.90;;
66380;SDS011;53177;52.648;1.214;2023-07-20T14:23:14;5.93;;;2.10;;
66380;SDS011;53177;52.648;1.214;2023-07-20T14:25:40;4.83;;;2.10;;
66380;SDS011;53177;52.648;1.214;2023-07-20T14:28:05;4.78;;;1.90;;
66380;SDS011;53177;52.648;1.214;2023-07-20T14:30:31;4.47;;;2.00;;
66380;SDS011;53177;52.648;1.214;2023-07-20T14:32:56;6.33;;;2.03;;
66380;SDS011;53177;52.648;1.214;2023-07-20T14:35:22;4.83;;;2.10;;
66380;SDS011;53177;52.648;1.214;2023-07-20T14:37:47;4.80;;;2.30;;
66380;SDS011;53177;52.648;1.214;2023-07-20T14:40:13;4.80;;;2.00;;
66380;SDS011;53177;52.648;1.214;2023-07-20T14:42:40;6.30;;;2.15;;
66380;SDS011;53177;52.648;1.214;2023-07-20T14:45:05;4.90;;;2.13;;
66380;SDS011;53177;52.648;1.214;2023-07-20T14:47:31;5.67;;;2.03;;
66380;SDS011;53177;52.648;1.214;2023-07-20T14:50:03;4.80;;;1.90;;
66380;SDS011;53177;52.648;1.214;2023-07-20T14:52:29;4.85;;;2.15;;
66380;SDS011;53177;52.648;1.214;2023-07-20T14:54:55;5.57;;;2.40;;
66380;SDS011;53177;52.648;1.214;2023-07-20T14:57:21;5.47;;;2.13;;
66380;SDS011;53177;52.648;1.214;2023-07-20T14:59:48;4.40;;;2.10;;
66380;SDS011;53177;52.648;1.214;2023-07-20T15:02:14;6.17;;;2.20;;
66380;SDS011;53177;52.648;1.214;2023-07-20T15:04:46;4.90;;;2.10;;
66380;SDS011;53177;52.648;1.214;2023-07-20T15:07:16;4.68;;;2.22;;
66380;SDS011;53177;52.648;1.214;2023-07-20T15:09:43;6.40;;;2.27;;